Time;durP1;ratioP1;P1;durP2;ratioP2;P2;SDS_P1;SDS_P2;PMS_P1;PMS_P2;Temp;Humidity;BMP_temperature;BMP_pressure;BME280_temperature;BME280_humidity;BME280_pressure;Samples;Min_cycle;Max_cycle;Signal;HPM_P1;HPM_P2
2022/10/30 05:01:26;;;;;;;6.00;3.60;;;12.50;99.90;;;;;;6059856;23;20491;-67
2022/10/30 05:03:52;;;;;;;3.43;3.27;;;12.50;99.90;;;;;;6090870;23;20423;-67
2022/10/30 05:06:23;;;;;;;4.70;3.50;;;12.50;99.90;;;;;;6092923;23;20935;-67
2022/10/30 05:08:50;;;;;;;3.30;3.10;;;12.40;99.90;;;;;;6092511;23;20496;-67
2022/10/30 05:11:17;;;;;;;16.70;3.90;;;12.40;99.90;;;;;;6093233;23;20454;-67
2022/10/30 05:13:44;;;;;;;4.30;3.47;;;12.40;99.90;;;;;;6092420;23;20425;-67
2022/10/30 05:16:11;;;;;;;3.87;3.57;;;12.30;99.90;;;;;;6093335;23;20996;-66
2022/10/30 05:18:39;;;;;;;13.47;3.60;;;12.30;99.90;;;;;;6093188;23;20433;-66
2022/10/30 05:21:05;;;;;;;2.83;2.63;;;12.30;99.90;;;;;;6092721;23;20963;-66
2022/10/30 05:23:32;;;;;;;5.77;4.27;;;12.30;99.90;;;;;;6091657;23;20215;-66
2022/10/30 05:26:00;;;;;;;6.03;3.77;;;12.20;99.90;;;;;;6093227;23;20534;-67
2022/10/30 05:28:26;;;;;;;5.63;4.40;;;12.20;99.90;;;;;;6091266;23;20917;-66
2022/10/30 05:30:53;;;;;;;3.37;3.17;;;12.20;99.90;;;;;;6092907;23;20461;-66
2022/10/30 05:33:20;;;;;;;10.17;4.63;;;12.20;99.90;;;;;;6092162;23;20437;-67
2022/10/30 05:35:48;;;;;;;8.10;4.60;;;12.10;99.90;;;;;;6092910;23;20904;-66
2022/10/30 05:38:15;;;;;;;2.87;2.57;;;12.10;99.90;;;;;;6092194;23;20205;-67
2022/10/30 05:40:41;;;;;;;4.57;4.23;;;12.10;99.90;;;;;;6093839;23;20749;-67
2022/10/30 05:43:08;;;;;;;4.03;3.47;;;12.00;99.90;;;;;;6089231;23;21221;-68
2022/10/30 05:45:35;;;;;;;4.33;3.97;;;12.00;99.90;;;;;;6091723;23;20430;-67
2022/10/30 05:48:03;;;;;;;4.57;4.00;;;12.00;99.90;;;;;;6092557;23;20426;-67
2022/10/30 05:50:31;;;;;;;8.47;4.97;;;12.00;99.90;;;;;;6092846;23;21140;-67
2022/10/30 05:53:00;;;;;;;3.63;3.42;;;12.00;99.90;;;;;;6091005;23;20435;-67
2022/10/30 05:55:28;;;;;;;4.65;4.10;;;12.00;99.90;;;;;;6093930;23;20190;-67
2022/10/30 05:57:57;;;;;;;4.90;3.23;;;12.00;99.90;;;;;;6092091;23;20190;-67
2022/10/30 06:00:25;;;;;;;3.50;3.15;;;11.90;99.90;;;;;;6092136;23;20923;-67
2022/10/30 06:02:51;;;;;;;7.38;4.30;;;11.90;99.90;;;;;;6092087;23;20708;-68
2022/10/30 06:05:18;;;;;;;4.60;4.20;;;11.90;99.90;;;;;;6102615;23;20207;-66
2022/10/30 06:07:45;;;;;;;6.60;4.70;;;11.90;99.90;;;;;;6091894;23;20450;-67
2022/10/30 06:10:13;;;;;;;3.70;3.40;;;11.90;99.90;;;;;;6093598;23;20462;-66
2022/10/30 06:12:40;;;;;;;9.60;4.33;;;11.90;99.90;;;;;;6092275;23;20534;-66
2022/10/30 06:15:07;;;;;;;6.23;3.53;;;11.90;99.90;;;;;;6092467;23;20452;-66
2022/10/30 06:17:34;;;;;;;5.47;5.05;;;11.90;99.90;;;;;;6092668;23;20433;-66
2022/10/30 06:20:00;;;;;;;9.48;3.63;;;11.90;99.90;;;;;;6093100;23;20193;-68
2022/10/30 06:22:27;;;;;;;4.07;3.78;;;11.90;99.90;;;;;;6094264;23;20214;-66
2022/10/30 06:24:54;;;;;;;3.78;3.67;;;11.90;99.90;;;;;;6093601;23;20501;-66
2022/10/30 06:27:22;;;;;;;9.57;5.55;;;11.80;99.90;;;;;;6094906;23;20182;-66
2022/10/30 06:29:49;;;;;;;4.40;4.10;;;11.90;99.90;;;;;;6095346;23;20202;-66
2022/10/30 06:32:16;;;;;;;4.07;3.77;;;11.90;99.90;;;;;;6093889;23;20948;-66
2022/10/30 06:34:43;;;;;;;4.63;4.22;;;11.90;99.90;;;;;;6095212;23;20430;-66
2022/10/30 06:37:10;;;;;;;6.35;5.75;;;11.90;99.90;;;;;;6094303;23;20243;-67
2022/10/30 06:39:37;;;;;;;8.88;5.78;;;11.90;99.90;;;;;;6094480;23;20178;-67
2022/10/30 06:42:04;;;;;;;4.10;3.80;;;11.90;99.90;;;;;;6095050;23;20508;-66
2022/10/30 06:44:32;;;;;;;6.10;4.50;;;11.90;99.90;;;;;;6094307;23;20801;-67
2022/10/30 06:46:58;;;;;;;5.85;3.95;;;11.90;99.90;;;;;;6094544;23;20478;-67
2022/10/30 06:49:25;;;;;;;8.10;4.57;;;11.90;99.90;;;;;;6094862;23;20206;-66
2022/10/30 06:51:52;;;;;;;6.43;3.78;;;12.00;99.90;;;;;;6094512;23;20217;-67
2022/10/30 06:54:19;;;;;;;6.13;5.53;;;12.00;99.90;;;;;;6093842;23;20182;-67
2022/10/30 06:56:50;;;;;;;6.65;3.63;;;12.00;99.90;;;;;;6094419;23;20201;-67
2022/10/30 06:59:16;;;;;;;4.57;3.70;;;12.00;99.90;;;;;;6095211;23;20180;-66
2022/10/30 07:01:44;;;;;;;4.73;4.20;;;12.00;99.90;;;;;;6103531;23;20461;-68
2022/10/30 07:04:11;;;;;;;4.22;3.70;;;12.00;99.90;;;;;;6094096;23;20426;-68
2022/10/30 07:06:38;;;;;;;5.07;4.63;;;12.00;99.90;;;;;;6094254;23;20191;-68
2022/10/30 07:09:04;;;;;;;3.73;3.47;;;12.00;99.90;;;;;;6093594;23;20186;-67
2022/10/30 07:11:31;;;;;;;4.27;4.00;;;12.10;99.90;;;;;;6094450;23;20477;-68
2022/10/30 07:13:58;;;;;;;3.90;3.63;;;12.10;99.90;;;;;;6092638;23;20719;-68
2022/10/30 07:16:25;;;;;;;13.53;4.80;;;12.20;99.90;;;;;;6095095;23;20433;-68
2022/10/30 07:18:55;;;;;;;5.50;3.87;;;12.20;99.90;;;;;;6095418;23;20739;-67
2022/10/30 07:21:21;;;;;;;5.87;5.30;;;12.30;99.90;;;;;;6094342;23;20451;-67
2022/10/30 07:23:48;;;;;;;4.67;3.63;;;12.40;99.90;;;;;;6093887;23;20434;-68
2022/10/30 07:26:15;;;;;;;7.13;4.13;;;12.50;99.90;;;;;;6093943;23;20433;-68
2022/10/30 07:28:41;;;;;;;3.80;3.43;;;12.50;99.90;;;;;;6093535;23;20426;-68
2022/10/30 07:31:08;;;;;;;5.07;4.03;;;12.60;99.90;;;;;;6093436;23;20962;-68
2022/10/30 07:33:35;;;;;;;5.13;4.30;;;12.70;99.90;;;;;;6093059;23;20517;-68
2022/10/30 07:36:03;;;;;;;4.43;4.10;;;12.80;99.90;;;;;;6103829;23;20431;-69
2022/10/30 07:38:30;;;;;;;4.00;3.77;;;12.80;99.90;;;;;;6092457;23;20432;-68
2022/10/30 07:40:57;;;;;;;9.27;3.83;;;12.90;99.90;;;;;;6094907;23;20450;-68
2022/10/30 07:43:23;;;;;;;5.27;4.20;;;12.90;99.90;;;;;;6093634;23;20427;-68
2022/10/30 07:45:50;;;;;;;3.50;3.23;;;13.10;99.90;;;;;;6093733;23;20436;-69
2022/10/30 07:48:17;;;;;;;3.27;3.10;;;13.20;99.90;;;;;;6093953;23;20435;-69
2022/10/30 07:50:43;;;;;;;3.30;3.20;;;13.20;99.90;;;;;;6096846;23;20481;-69
2022/10/30 07:53:11;;;;;;;4.40;4.10;;;13.30;99.90;;;;;;6096131;23;20431;-68
2022/10/30 07:55:38;;;;;;;3.90;3.70;;;13.30;99.90;;;;;;6094808;23;20430;-68
2022/10/30 07:58:05;;;;;;;3.07;2.90;;;13.40;99.90;;;;;;6094440;23;20435;-68
2022/10/30 08:00:31;;;;;;;4.13;3.83;;;13.40;99.90;;;;;;6095066;23;20434;-69
2022/10/30 08:02:58;;;;;;;5.10;4.20;;;13.40;99.90;;;;;;6093390;23;20412;-67
2022/10/30 08:05:25;;;;;;;6.13;4.07;;;13.50;99.90;;;;;;6094113;23;20431;-66
2022/10/30 08:07:52;;;;;;;3.23;3.03;;;13.60;99.90;;;;;;6093493;23;20521;-67
2022/10/30 08:10:20;;;;;;;4.00;3.70;;;13.60;99.90;;;;;;6095978;23;20458;-67
2022/10/30 08:12:47;;;;;;;4.00;3.53;;;13.70;99.90;;;;;;6094694;23;20793;-67
2022/10/30 08:15:14;;;;;;;5.23;3.40;;;13.70;99.90;;;;;;6096600;23;20432;-66
2022/10/30 08:17:42;;;;;;;4.40;3.87;;;13.80;99.90;;;;;;6098521;23;20759;-67
2022/10/30 08:20:10;;;;;;;4.43;2.97;;;13.80;99.90;;;;;;6108437;23;20439;-67
2022/10/30 08:22:44;;;;;;;6.77;4.33;;;13.90;99.90;;;;;;6108981;23;20447;-68
2022/10/30 08:25:11;;;;;;;16.37;4.40;;;14.00;99.90;;;;;;6110618;23;20412;-67
2022/10/30 08:27:39;;;;;;;9.80;4.47;;;14.10;99.90;;;;;;6108918;23;20423;-67
2022/10/30 08:30:07;;;;;;;4.57;4.10;;;14.10;99.90;;;;;;6113608;23;20429;-69
2022/10/30 08:32:33;;;;;;;4.80;4.47;;;14.20;99.90;;;;;;6118078;23;20450;-69
2022/10/30 08:35:00;;;;;;;4.03;3.70;;;14.30;99.90;;;;;;6118614;23;20425;-68
2022/10/30 08:37:27;;;;;;;3.80;3.60;;;14.40;99.90;;;;;;6107409;23;20455;-68
2022/10/30 08:39:53;;;;;;;6.80;4.00;;;14.50;99.90;;;;;;6107780;23;20428;-69
2022/10/30 08:42:20;;;;;;;8.03;4.47;;;14.50;99.90;;;;;;6106947;23;21149;-69
2022/10/30 08:44:48;;;;;;;3.53;3.23;;;14.60;99.90;;;;;;6105988;23;20462;-69
2022/10/30 08:47:15;;;;;;;2.97;2.87;;;14.70;99.90;;;;;;6103068;23;20530;-69
2022/10/30 08:49:42;;;;;;;5.50;3.50;;;14.90;99.90;;;;;;6098362;23;20459;-68
2022/10/30 08:52:08;;;;;;;3.00;2.90;;;15.00;99.90;;;;;;6093095;23;20568;-69
2022/10/30 08:54:35;;;;;;;2.93;2.80;;;15.10;99.90;;;;;;6091775;23;20424;-69
2022/10/30 08:57:02;;;;;;;6.37;3.33;;;15.20;99.90;;;;;;6094363;23;20432;-68
2022/10/30 08:59:29;;;;;;;4.43;3.67;;;15.30;99.90;;;;;;6092495;23;20428;-68
2022/10/30 09:01:57;;;;;;;3.40;3.10;;;15.40;99.90;;;;;;6093751;23;20463;-68
2022/10/30 09:04:24;;;;;;;3.43;3.13;;;15.40;99.90;;;;;;6093184;23;20498;-68
2022/10/30 09:06:50;;;;;;;3.50;3.20;;;15.50;99.90;;;;;;6093044;23;20443;-68
2022/10/30 09:09:17;;;;;;;2.60;2.50;;;15.60;99.90;;;;;;6093618;23;20428;-69
2022/10/30 09:11:44;;;;;;;5.07;2.73;;;15.70;99.90;;;;;;6093082;23;20467;-69
2022/10/30 09:14:11;;;;;;;3.13;2.83;;;15.80;99.90;;;;;;6092644;23;20446;-69
2022/10/30 09:16:38;;;;;;;3.13;2.93;;;15.80;99.90;;;;;;6093641;23;20550;-68
2022/10/30 09:19:06;;;;;;;3.43;3.17;;;15.90;99.90;;;;;;6093473;23;20429;-68
2022/10/30 09:21:33;;;;;;;4.30;3.67;;;16.00;99.90;;;;;;6093294;23;20442;-68
2022/10/30 09:23:59;;;;;;;4.17;3.47;;;16.00;99.90;;;;;;6092115;23;20428;-68
2022/10/30 09:26:26;;;;;;;2.70;2.60;;;16.10;99.90;;;;;;6102111;23;20916;-68
2022/10/30 09:28:53;;;;;;;2.47;2.27;;;16.20;99.90;;;;;;6093336;23;20436;-68
2022/10/30 09:31:19;;;;;;;4.00;3.60;;;16.20;99.90;;;;;;6093689;23;20541;-68
2022/10/30 09:33:46;;;;;;;4.30;2.50;;;16.30;99.90;;;;;;6092878;23;20426;-68
2022/10/30 09:36:14;;;;;;;4.17;2.90;;;16.40;99.90;;;;;;6093258;23;21068;-68
2022/10/30 09:38:42;;;;;;;4.60;2.57;;;16.50;99.90;;;;;;6093439;23;20748;-68
2022/10/30 09:41:28;;;;;;;3.63;3.47;;;16.50;99.90;;;;;;6092817;23;20443;-68
2022/10/30 09:44:08;;;;;;;5.90;3.30;;;16.60;99.90;;;;;;6093178;23;20421;-68
2022/10/30 09:46:50;;;;;;;5.73;3.63;;;16.70;99.90;;;;;;6093261;23;20414;-68
2022/10/30 09:49:44;;;;;;;4.30;4.00;;;16.70;99.90;;;;;;6093209;23;20416;-68
2022/10/30 09:52:22;;;;;;;2.70;2.57;;;16.90;99.90;;;;;;6092468;23;20462;-68
2022/10/30 09:55:27;;;;;;;3.40;2.60;;;17.00;99.90;;;;;;6091049;23;20409;-68
2022/10/30 09:58:01;;;;;;;2.43;2.33;;;17.10;99.90;;;;;;6036135;23;20434;-68
2022/10/30 10:00:33;;;;;;;3.27;3.07;;;17.10;99.90;;;;;;6095223;23;20499;-68
2022/10/30 10:03:13;;;;;;;4.53;4.13;;;17.20;99.90;;;;;;6094271;23;20444;-68
2022/10/30 10:05:45;;;;;;;3.30;3.07;;;17.30;99.90;;;;;;6105410;23;20409;-68
2022/10/30 10:08:18;;;;;;;3.07;2.97;;;17.30;99.90;;;;;;6093774;23;20410;-68
2022/10/30 10:10:48;;;;;;;2.90;2.77;;;17.40;99.90;;;;;;6095913;23;20477;-67
2022/10/30 10:13:27;;;;;;;3.40;3.10;;;17.40;99.90;;;;;;6095050;23;20450;-67
2022/10/30 10:15:58;;;;;;;2.57;2.40;;;17.50;99.90;;;;;;6094745;23;20414;-68
2022/10/30 10:18:31;;;;;;;2.50;2.30;;;17.50;99.90;;;;;;6095385;23;20409;-68
2022/10/30 10:21:06;;;;;;;2.97;2.77;;;17.60;99.90;;;;;;6094867;23;20454;-68
2022/10/30 10:23:41;;;;;;;2.67;2.47;;;17.70;99.90;;;;;;6094909;23;20411;-67
2022/10/30 10:26:16;;;;;;;7.80;3.00;;;17.80;99.90;;;;;;6093648;23;20416;-67
2022/10/30 10:28:55;;;;;;;10.20;3.07;;;17.80;99.90;;;;;;6095400;23;20434;-67
2022/10/30 10:31:33;;;;;;;3.03;2.47;;;17.90;99.90;;;;;;6095441;23;20482;-67
2022/10/30 10:34:14;;;;;;;9.23;2.97;;;17.90;99.90;;;;;;6094282;23;20446;-69
2022/10/30 10:36:50;;;;;;;2.20;2.03;;;18.00;99.90;;;;;;6094646;23;20409;-69
2022/10/30 10:39:44;;;;;;;2.57;2.40;;;18.10;99.90;;;;;;6095015;23;20447;-68
2022/10/30 10:42:19;;;;;;;2.70;2.50;;;18.20;99.90;;;;;;6095787;23;20450;-72
2022/10/30 10:45:04;;;;;;;2.70;2.50;;;18.20;99.90;;;;;;6094904;23;20412;-68
2022/10/30 10:47:46;;;;;;;2.17;2.07;;;18.20;99.90;;;;;;6095895;23;20739;-69
2022/10/30 10:50:21;;;;;;;3.10;2.80;;;18.30;99.90;;;;;;6095696;23;20417;-68
2022/10/30 10:52:52;;;;;;;2.50;2.40;;;18.40;99.90;;;;;;6092616;23;20404;-68
2022/10/30 10:55:24;;;;;;;3.03;2.93;;;18.40;99.90;;;;;;6095452;23;20412;-68
2022/10/30 10:57:53;;;;;;;3.70;2.77;;;18.50;99.90;;;;;;6095390;23;20415;-68
2022/10/30 11:00:22;;;;;;;3.37;3.10;;;18.50;99.90;;;;;;6095347;23;20435;-68
2022/10/30 11:02:55;;;;;;;2.23;2.23;;;18.50;99.90;;;;;;6094764;23;20471;-69
2022/10/30 11:05:30;;;;;;;3.10;2.80;;;18.50;99.90;;;;;;6094994;23;20899;-68
2022/10/30 11:08:01;;;;;;;2.53;2.43;;;18.50;99.90;;;;;;6093755;23;20745;-68
2022/10/30 11:10:29;;;;;;;5.70;2.37;;;18.50;99.90;;;;;;6104873;23;20632;-68
2022/10/30 11:12:55;;;;;;;2.50;2.40;;;18.50;99.90;;;;;;6094324;23;20437;-68
2022/10/30 11:15:40;;;;;;;2.70;2.47;;;18.60;99.90;;;;;;6095651;23;20460;-65
2022/10/30 11:18:08;;;;;;;3.00;2.80;;;18.70;99.90;;;;;;6066443;23;20417;-68
2022/10/30 11:20:42;;;;;;;2.27;2.27;;;18.70;99.90;;;;;;6066616;23;20428;-68
2022/10/30 11:23:31;;;;;;;3.30;2.53;;;18.70;99.90;;;;;;6063815;23;20467;-69
2022/10/30 11:25:59;;;;;;;9.53;3.20;;;18.70;99.90;;;;;;6066264;23;20442;-68
2022/10/30 11:28:40;;;;;;;5.83;3.20;;;18.70;99.90;;;;;;6067034;23;20432;-69
2022/10/30 11:31:22;;;;;;;9.27;2.70;;;18.80;99.90;;;;;;6066973;23;20434;-69
2022/10/30 11:33:50;;;;;;;3.47;3.17;;;18.90;99.90;;;;;;6070071;23;20435;-69
2022/10/30 11:36:21;;;;;;;3.90;2.50;;;18.90;99.90;;;;;;6067289;23;20453;-69
2022/10/30 11:38:48;;;;;;;2.83;2.60;;;19.00;99.90;;;;;;6068474;23;20423;-70
2022/10/30 11:41:17;;;;;;;2.60;2.50;;;19.00;99.90;;;;;;6070334;23;20432;-71
2022/10/30 11:43:44;;;;;;;2.83;2.73;;;19.00;99.90;;;;;;6079042;23;20479;-70
2022/10/30 11:46:19;;;;;;;3.53;3.40;;;19.00;99.90;;;;;;6070412;23;20908;-70
2022/10/30 11:48:53;;;;;;;3.30;2.37;;;19.10;99.90;;;;;;6070339;23;20431;-69
2022/10/30 11:51:35;;;;;;;4.20;3.13;;;19.20;99.90;;;;;;6066286;23;20825;-69
2022/10/30 11:54:02;;;;;;;2.70;2.50;;;19.20;99.90;;;;;;6065825;23;20413;-69
2022/10/30 11:56:32;;;;;;;2.60;2.40;;;19.20;99.90;;;;;;6066452;23;20460;-68
2022/10/30 11:59:01;;;;;;;4.13;2.60;;;19.20;99.90;;;;;;6066938;23;20429;-70
2022/10/30 12:01:30;;;;;;;7.33;2.43;;;19.20;99.90;;;;;;6066194;23;20907;-70
2022/10/30 12:04:12;;;;;;;9.30;2.83;;;19.30;99.90;;;;;;6065923;23;20484;-70
2022/10/30 12:06:39;;;;;;;2.20;2.10;;;19.30;99.90;;;;;;6065788;23;20449;-69
2022/10/30 12:09:12;;;;;;;3.33;3.20;;;19.40;99.90;;;;;;6065475;23;20791;-70
2022/10/30 12:11:43;;;;;;;6.27;2.40;;;19.40;99.90;;;;;;6067203;23;20443;-70
2022/10/30 12:14:16;;;;;;;2.23;2.00;;;19.50;99.90;;;;;;6066093;23;20703;-70
2022/10/30 12:16:46;;;;;;;2.63;2.43;;;19.50;99.90;;;;;;6066910;23;20454;-70
2022/10/30 12:19:14;;;;;;;3.23;3.07;;;19.50;99.90;;;;;;6066122;23;20521;-70
2022/10/30 12:21:45;;;;;;;3.33;2.10;;;19.60;99.90;;;;;;6065845;23;20425;-69
2022/10/30 12:24:17;;;;;;;2.40;2.03;;;19.70;99.90;;;;;;6064180;23;20438;-68
2022/10/30 12:26:49;;;;;;;2.10;2.10;;;19.70;99.90;;;;;;6065098;23;20465;-68
2022/10/30 12:29:20;;;;;;;2.40;2.20;;;19.70;99.90;;;;;;6065923;23;20505;-68
2022/10/30 12:31:55;;;;;;;6.30;2.80;;;19.70;99.90;;;;;;6066274;23;20435;-71
2022/10/30 12:34:36;;;;;;;1.77;1.67;;;19.70;99.90;;;;;;6065144;23;20430;-67
2022/10/30 12:37:08;;;;;;;1.80;1.70;;;19.80;99.90;;;;;;6065483;23;20450;-68
2022/10/30 12:39:57;;;;;;;4.90;2.73;;;19.80;99.90;;;;;;6065094;23;20421;-70
2022/10/30 12:42:25;;;;;;;2.87;2.17;;;19.90;99.90;;;;;;6064501;23;20413;-69
2022/10/30 12:45:00;;;;;;;7.87;2.60;;;19.90;99.90;;;;;;6065158;23;20429;-68
2022/10/30 12:47:33;;;;;;;2.30;2.20;;;19.90;99.90;;;;;;6064553;23;20813;-69
2022/10/30 12:50:04;;;;;;;2.83;2.10;;;19.80;99.90;;;;;;6065498;23;20414;-69
2022/10/30 12:52:35;;;;;;;6.43;3.57;;;19.90;99.90;;;;;;6064301;23;20441;-67
2022/10/30 12:55:09;;;;;;;2.30;2.10;;;19.90;99.90;;;;;;6065032;23;20420;-68
2022/10/30 12:57:42;;;;;;;3.40;1.83;;;19.90;99.90;;;;;;6064482;23;20445;-69
2022/10/30 13:00:13;;;;;;;2.70;2.60;;;19.90;99.90;;;;;;6065467;23;20421;-69
2022/10/30 13:02:52;;;;;;;2.37;2.27;;;19.90;99.90;;;;;;6064646;23;20407;-69
2022/10/30 13:05:28;;;;;;;8.20;2.50;;;19.90;99.90;;;;;;6065144;23;20426;-68
2022/10/30 13:08:06;;;;;;;2.20;2.00;;;19.90;99.90;;;;;;6067138;23;20438;-70
2022/10/30 13:10:39;;;;;;;2.23;1.97;;;20.00;99.90;;;;;;6066297;23;20413;-71
2022/10/30 13:13:12;;;;;;;2.30;2.10;;;19.90;99.90;;;;;;6064847;23;20434;-72
2022/10/30 13:15:44;;;;;;;7.30;2.57;;;19.90;99.90;;;;;;6066619;23;20552;-70
2022/10/30 13:18:16;;;;;;;2.70;2.53;;;19.90;99.90;;;;;;6064466;23;20414;-69
2022/10/30 13:20:51;;;;;;;2.50;2.40;;;19.90;99.90;;;;;;6065335;23;20466;-69
2022/10/30 13:23:21;;;;;;;5.77;2.00;;;19.80;99.90;;;;;;6062051;23;20732;-68
2022/10/30 13:26:10;;;;;;;8.10;2.90;;;19.90;99.90;;;;;;6064436;23;20471;-68
2022/10/30 13:28:43;;;;;;;2.30;2.20;;;19.90;99.90;;;;;;6063489;23;20418;-68
2022/10/30 13:31:20;;;;;;;3.53;3.33;;;19.90;99.90;;;;;;6063873;23;20740;-68
2022/10/30 13:33:59;;;;;;;2.97;2.70;;;19.90;99.90;;;;;;6064304;23;20865;-69
2022/10/30 13:36:32;;;;;;;2.40;2.30;;;19.80;99.90;;;;;;6064829;23;20451;-69
2022/10/30 13:39:03;;;;;;;7.37;2.23;;;19.80;99.90;;;;;;6074196;23;20473;-68
2022/10/30 13:41:39;;;;;;;7.03;3.10;;;19.80;99.90;;;;;;6065199;23;20818;-68
2022/10/30 13:44:19;;;;;;;2.00;2.00;;;19.80;99.90;;;;;;6063644;23;20410;-68
2022/10/30 13:47:04;;;;;;;2.07;2.00;;;19.90;99.90;;;;;;6065138;23;20524;-69
2022/10/30 13:49:45;;;;;;;2.10;2.00;;;19.90;99.90;;;;;;6065416;23;20413;-67
2022/10/30 13:52:14;;;;;;;2.43;1.90;;;19.80;99.90;;;;;;6064491;23;20440;-67
2022/10/30 13:54:45;;;;;;;2.43;2.23;;;19.90;99.90;;;;;;6063729;23;20429;-68
2022/10/30 13:57:19;;;;;;;2.33;2.23;;;19.90;99.90;;;;;;6065176;23;20452;-68
2022/10/30 13:59:59;;;;;;;4.30;2.50;;;19.80;99.90;;;;;;6065179;23;20424;-68
2022/10/30 14:02:40;;;;;;;1.90;1.80;;;19.80;99.90;;;;;;6064962;23;20416;-68
2022/10/30 14:05:20;;;;;;;10.70;2.97;;;19.80;99.90;;;;;;6065356;23;20747;-68
2022/10/30 14:07:54;;;;;;;2.23;2.10;;;19.70;99.90;;;;;;6063923;23;20439;-67
2022/10/30 14:10:31;;;;;;;3.97;2.80;;;19.70;99.90;;;;;;6064050;23;20441;-67
2022/10/30 14:13:13;;;;;;;2.80;2.40;;;19.70;99.90;;;;;;6062441;23;20951;-66
2022/10/30 14:15:43;;;;;;;8.03;2.73;;;19.60;99.90;;;;;;6063381;23;20449;-69
2022/10/30 14:18:47;;;;;;;3.20;2.90;;;19.60;99.90;;;;;;6064929;23;20414;-69
2022/10/30 14:21:38;;;;;;;2.07;1.97;;;19.60;99.90;;;;;;6057059;23;20440;-69
2022/10/30 14:24:15;;;;;;;2.60;2.47;;;19.50;99.90;;;;;;6064653;23;20451;-68
2022/10/30 14:26:47;;;;;;;4.00;3.80;;;19.50;99.90;;;;;;6063049;23;20477;-69
2022/10/30 14:29:41;;;;;;;1.63;1.53;;;19.50;99.90;;;;;;6066425;23;20501;-70
2022/10/30 14:32:40;;;;;;;2.97;2.60;;;19.40;99.90;;;;;;6064306;23;20940;-70
2022/10/30 14:35:43;;;;;;;2.60;2.50;;;19.30;99.90;;;;;;6065197;23;20414;-69
2022/10/30 14:38:34;;;;;;;3.60;2.47;;;19.20;99.90;;;;;;6063554;23;20464;-68
2022/10/30 14:41:30;;;;;;;11.40;3.57;;;19.10;99.90;;;;;;6058199;23;20440;-69
2022/10/30 14:44:16;;;;;;;2.40;2.30;;;19.10;99.90;;;;;;6065867;23;20409;-70
2022/10/30 14:46:55;;;;;;;3.40;3.30;;;19.10;99.90;;;;;;6066441;23;20956;-70
2022/10/30 14:49:42;;;;;;;2.83;2.73;;;19.00;99.90;;;;;;6067142;23;20630;-70
2022/10/30 14:52:19;;;;;;;3.60;3.30;;;18.90;99.90;;;;;;6066903;23;20440;-70
2022/10/30 14:54:53;;;;;;;3.20;3.10;;;18.80;99.90;;;;;;6065331;23;20922;-70
2022/10/30 14:57:22;;;;;;;3.30;3.20;;;18.60;99.90;;;;;;6065533;23;20448;-69
2022/10/30 14:59:49;;;;;;;3.53;3.33;;;18.50;99.90;;;;;;6066751;23;20428;-71
2022/10/30 15:02:37;;;;;;;7.23;3.07;;;18.40;99.90;;;;;;6066922;23;20423;-70
2022/10/30 15:05:22;;;;;;;4.87;3.50;;;18.30;99.90;;;;;;6065875;23;20411;-71
2022/10/30 15:07:53;;;;;;;3.70;3.57;;;18.10;99.90;;;;;;6066008;23;20416;-70
2022/10/30 15:10:29;;;;;;;5.07;3.77;;;18.00;99.90;;;;;;6067026;23;20417;-69
2022/10/30 15:13:06;;;;;;;4.00;3.60;;;17.90;99.90;;;;;;6064154;23;20436;-70
2022/10/30 15:15:33;;;;;;;3.73;3.50;;;17.80;99.90;;;;;;6065838;23;20416;-69
2022/10/30 15:18:03;;;;;;;6.80;4.40;;;17.70;99.90;;;;;;6066450;23;20428;-70
2022/10/30 15:20:33;;;;;;;4.33;3.93;;;17.60;99.90;;;;;;6066144;23;20435;-70
2022/10/30 15:23:03;;;;;;;4.70;4.40;;;17.50;99.90;;;;;;6064984;23;20741;-69
2022/10/30 15:25:35;;;;;;;6.10;4.10;;;17.40;99.90;;;;;;6066347;23;20503;-70
2022/10/30 15:28:02;;;;;;;4.17;3.90;;;17.30;99.90;;;;;;6066685;23;20519;-70
2022/10/30 15:30:28;;;;;;;11.90;8.60;;;17.10;99.90;;;;;;6066804;23;20911;-70
2022/10/30 15:32:55;;;;;;;7.87;6.93;;;17.00;99.90;;;;;;6063705;23;20455;-70
2022/10/30 15:35:23;;;;;;;8.57;6.63;;;16.90;99.90;;;;;;6063073;23;20430;-70
2022/10/30 15:38:03;;;;;;;8.63;7.00;;;16.90;99.90;;;;;;6065839;23;20442;-70
2022/10/30 15:40:30;;;;;;;6.77;6.07;;;16.80;99.90;;;;;;6065036;23;20423;-71
2022/10/30 15:43:00;;;;;;;4.30;4.03;;;16.70;99.90;;;;;;6064095;23;20900;-69
2022/10/30 15:45:33;;;;;;;4.93;4.07;;;16.60;99.90;;;;;;6064632;23;20899;-69
2022/10/30 15:48:05;;;;;;;5.33;4.20;;;16.50;99.90;;;;;;6066560;23;20419;-69
2022/10/30 15:50:33;;;;;;;13.93;4.07;;;16.40;99.90;;;;;;6067101;23;20419;-70
2022/10/30 15:53:01;;;;;;;4.93;4.27;;;16.30;99.90;;;;;;6063482;23;20459;-70
2022/10/30 15:55:30;;;;;;;5.40;4.50;;;16.30;99.90;;;;;;6066314;23;20428;-70
2022/10/30 15:58:00;;;;;;;4.43;4.23;;;16.20;99.90;;;;;;6066002;23;20426;-70
2022/10/30 16:00:29;;;;;;;3.70;3.50;;;16.10;99.90;;;;;;6066172;23;20433;-72
2022/10/30 16:03:00;;;;;;;5.83;4.37;;;16.00;99.90;;;;;;6065482;23;20438;-70
2022/10/30 16:05:28;;;;;;;6.70;4.50;;;16.00;99.90;;;;;;6066376;23;20428;-69
2022/10/30 16:07:56;;;;;;;4.87;4.37;;;16.00;99.90;;;;;;6065098;23;20466;-70
2022/10/30 16:10:29;;;;;;;5.70;5.20;;;15.90;99.90;;;;;;6070623;23;20426;-69
2022/10/30 16:12:57;;;;;;;7.37;6.00;;;15.80;99.90;;;;;;6068899;23;20503;-68
2022/10/30 16:15:28;;;;;;;10.50;6.70;;;15.80;99.90;;;;;;6069427;23;20422;-69
2022/10/30 16:18:06;;;;;;;5.23;4.93;;;15.70;99.90;;;;;;6070472;23;20435;-70
2022/10/30 16:20:33;;;;;;;5.00;4.50;;;15.70;99.90;;;;;;6070640;23;20411;-68
2022/10/30 16:23:01;;;;;;;4.77;4.37;;;15.60;99.90;;;;;;6067217;23;20419;-69
2022/10/30 16:25:30;;;;;;;4.50;4.17;;;15.50;99.90;;;;;;6061445;23;21064;-71
2022/10/30 16:27:57;;;;;;;4.97;4.50;;;15.50;99.90;;;;;;6063790;23;20431;-69
2022/10/30 16:30:28;;;;;;;5.13;4.73;;;15.40;99.90;;;;;;6062721;23;20435;-68
2022/10/30 16:32:55;;;;;;;5.60;5.20;;;15.40;99.90;;;;;;6064944;23;21317;-68
2022/10/30 16:35:24;;;;;;;6.90;6.00;;;15.40;99.90;;;;;;6067045;23;20426;-68
2022/10/30 16:37:51;;;;;;;7.23;6.27;;;15.30;99.90;;;;;;6066541;23;20429;-68
2022/10/30 16:40:21;;;;;;;8.80;6.30;;;15.40;99.90;;;;;;6066626;23;20433;-67
2022/10/30 16:42:54;;;;;;;6.03;5.57;;;15.30;99.90;;;;;;6064057;23;20420;-69
2022/10/30 16:45:45;;;;;;;8.33;6.50;;;15.30;99.90;;;;;;6066918;23;20912;-69
2022/10/30 16:48:19;;;;;;;5.43;4.73;;;15.20;99.90;;;;;;6067201;23;20434;-70
2022/10/30 16:50:46;;;;;;;6.30;4.97;;;15.20;99.90;;;;;;6069786;23;20468;-70
2022/10/30 16:53:18;;;;;;;7.60;6.70;;;15.10;99.90;;;;;;6067452;23;20456;-70
2022/10/30 16:55:45;;;;;;;8.20;4.43;;;15.10;99.90;;;;;;6070009;23;20473;-71
2022/10/30 16:58:14;;;;;;;5.77;5.17;;;15.00;99.90;;;;;;6069680;23;20440;-70
2022/10/30 17:00:47;;;;;;;5.53;5.00;;;15.00;99.90;;;;;;6068182;23;20429;-69
2022/10/30 17:03:14;;;;;;;8.73;6.60;;;15.00;99.90;;;;;;6068316;23;20761;-70
2022/10/30 17:05:42;;;;;;;14.23;6.97;;;15.00;99.90;;;;;;6069136;23;20484;-70
2022/10/30 17:08:34;;;;;;;6.63;6.03;;;14.90;99.90;;;;;;6068311;23;20536;-69
2022/10/30 17:11:02;;;;;;;11.40;6.97;;;14.90;99.90;;;;;;6067421;23;20887;-69
2022/10/30 17:13:36;;;;;;;6.30;5.80;;;14.80;99.90;;;;;;6067752;23;20552;-69
2022/10/30 17:16:18;;;;;;;6.97;6.33;;;14.80;99.90;;;;;;6067339;23;20477;-69
2022/10/30 17:18:45;;;;;;;8.00;5.87;;;14.80;99.90;;;;;;6067622;23;20414;-70
2022/10/30 17:21:13;;;;;;;10.20;8.70;;;14.80;99.90;;;;;;6068319;23;20437;-69
2022/10/30 17:23:45;;;;;;;8.73;7.57;;;14.70;99.90;;;;;;6066829;23;20429;-68
2022/10/30 17:26:13;;;;;;;14.97;7.60;;;14.70;99.90;;;;;;6067197;23;20448;-69
2022/10/30 17:28:42;;;;;;;7.70;6.87;;;14.60;99.90;;;;;;6063306;23;20902;-69
2022/10/30 17:31:23;;;;;;;7.63;7.13;;;14.60;99.90;;;;;;6062913;23;20441;-68
2022/10/30 17:34:16;;;;;;;8.23;7.47;;;14.60;99.90;;;;;;6064884;23;20449;-69
2022/10/30 17:36:43;;;;;;;7.17;6.47;;;14.60;99.90;;;;;;6065327;23;20452;-69
2022/10/30 17:39:10;;;;;;;9.07;6.47;;;14.50;99.90;;;;;;6065260;23;20956;-70
2022/10/30 17:41:37;;;;;;;16.40;7.87;;;14.50;99.90;;;;;;6066748;23;20427;-69
2022/10/30 17:44:06;;;;;;;7.40;6.57;;;14.50;99.90;;;;;;6067482;23;20437;-69
2022/10/30 17:46:33;;;;;;;8.23;7.50;;;14.50;99.90;;;;;;6067305;23;20456;-69
2022/10/30 17:49:00;;;;;;;10.67;7.33;;;14.40;99.90;;;;;;6068343;23;20412;-69
2022/10/30 17:51:28;;;;;;;7.87;7.07;;;14.40;99.90;;;;;;6066552;23;20877;-69
2022/10/30 17:53:54;;;;;;;7.70;6.30;;;14.40;99.90;;;;;;6065089;23;20452;-68
2022/10/30 17:56:24;;;;;;;7.30;6.57;;;14.40;99.90;;;;;;6069676;23;20448;-69
2022/10/30 17:58:51;;;;;;;13.60;6.87;;;14.30;99.90;;;;;;6067191;23;20429;-69
2022/10/30 18:01:21;;;;;;;8.03;6.80;;;14.30;99.90;;;;;;6066410;23;20915;-70
2022/10/30 18:03:48;;;;;;;13.03;8.63;;;14.20;99.90;;;;;;6067093;23;20425;-69
2022/10/30 18:06:17;;;;;;;11.00;8.60;;;14.20;99.90;;;;;;6066024;23;21212;-69
2022/10/30 18:08:43;;;;;;;11.33;8.70;;;14.20;99.90;;;;;;6066248;23;20429;-70